createdAt,value
2023-12-31T00:01:50.313Z,80.84
2023-12-31T00:04:16.903Z,80.98
2023-12-31T00:06:43.435Z,80.55
2023-12-31T00:09:09.958Z,80.89
2023-12-31T00:11:36.425Z,80.69
2023-12-31T00:14:02.971Z,80.17
2023-12-31T00:16:29.562Z,80.26
2023-12-31T00:18:56.154Z,80.50
2023-12-31T00:21:22.738Z,80.34
2023-12-31T00:23:51.269Z,79.75
2023-12-31T00:26:17.862Z,79.68
2023-12-31T00:28:44.510Z,79.62
2023-12-31T00:31:11.141Z,80.17
2023-12-31T00:33:37.989Z,80.00
2023-12-31T00:36:05.714Z,80.04
2023-12-31T00:38:32.254Z,79.53
2023-12-31T00:40:58.815Z,80.28
2023-12-31T00:43:25.528Z,81.17
2023-12-31T00:45:52.124Z,80.75
2023-12-31T00:48:18.711Z,80.46
2023-12-31T00:50:45.371Z,80.79
2023-12-31T00:53:12.028Z,79.57
2023-12-31T00:55:40.062Z,80.21
2023-12-31T00:58:08.547Z,79.65
2023-12-31T01:00:35.203Z,79.82
2023-12-31T01:03:01.950Z,79.43
2023-12-31T01:05:28.735Z,79.10
2023-12-31T01:07:55.417Z,79.24
2023-12-31T01:10:22.060Z,79.37
2023-12-31T01:12:48.667Z,79.53
2023-12-31T01:15:15.253Z,79.10
2023-12-31T01:17:41.867Z,79.40
2023-12-31T01:20:09.640Z,79.23
2023-12-31T01:22:36.522Z,79.26
2023-12-31T01:25:04.724Z,79.39
2023-12-31T01:27:31.283Z,79.82
2023-12-31T01:29:57.912Z,80.07
2023-12-31T01:32:24.571Z,80.13
2023-12-31T01:34:51.237Z,79.91
2023-12-31T01:37:17.765Z,79.12
2023-12-31T01:39:44.413Z,79.51
2023-12-31T01:42:10.945Z,79.11
2023-12-31T01:44:37.452Z,79.30
2023-12-31T01:47:04.659Z,78.13
2023-12-31T01:49:32.089Z,78.51
2023-12-31T01:51:58.879Z,78.45
2023-12-31T01:54:26.431Z,78.88
2023-12-31T01:56:54.382Z,78.99
2023-12-31T01:59:24.087Z,78.66
2023-12-31T02:01:56.476Z,79.47
2023-12-31T02:04:31.869Z,80.54
2023-12-31T02:06:58.971Z,81.05
2023-12-31T02:09:25.909Z,80.63
2023-12-31T02:11:52.419Z,80.20
2023-12-31T02:14:18.922Z,80.28
2023-12-31T02:16:45.461Z,80.20
2023-12-31T02:19:12.007Z,80.05
2023-12-31T02:21:38.574Z,79.67
2023-12-31T02:24:05.403Z,79.81
2023-12-31T02:26:32.845Z,80.26
2023-12-31T02:28:59.363Z,79.80
2023-12-31T02:31:25.860Z,79.64
2023-12-31T02:33:52.507Z,79.67
2023-12-31T02:36:19.106Z,79.69
2023-12-31T02:38:45.580Z,79.47
2023-12-31T02:41:12.094Z,79.50
2023-12-31T02:43:38.933Z,79.34
2023-12-31T02:46:05.580Z,79.58
2023-12-31T02:48:32.140Z,79.35
2023-12-31T02:50:58.652Z,79.42
2023-12-31T02:53:25.153Z,79.36
2023-12-31T02:55:51.754Z,79.23
2023-12-31T02:58:18.293Z,79.32
2023-12-31T03:00:44.926Z,79.05
2023-12-31T03:03:11.467Z,79.04
2023-12-31T03:05:38.158Z,78.87
2023-12-31T03:08:05.088Z,78.37
2023-12-31T03:10:31.789Z,78.50
2023-12-31T03:12:58.307Z,78.33
2023-12-31T03:15:25.275Z,78.09
2023-12-31T03:17:52.320Z,77.87
2023-12-31T03:20:19.231Z,77.26
2023-12-31T03:22:48.957Z,77.07
2023-12-31T03:25:15.793Z,76.75
2023-12-31T03:27:42.399Z,76.48
2023-12-31T03:30:09.782Z,76.21
2023-12-31T03:32:36.492Z,75.82
2023-12-31T03:35:03.730Z,75.70
2023-12-31T03:37:30.766Z,75.56
2023-12-31T03:39:57.457Z,75.45
2023-12-31T03:42:25.002Z,75.03
2023-12-31T03:44:51.672Z,75.16
2023-12-31T03:47:18.235Z,75.25
2023-12-31T03:49:44.858Z,74.29
2023-12-31T03:52:12.168Z,74.44
2023-12-31T03:54:42.555Z,74.69
2023-12-31T03:57:09.174Z,74.42
2023-12-31T03:59:35.731Z,74.28
2023-12-31T04:02:02.406Z,73.90
2023-12-31T04:04:30.612Z,74.19
2023-12-31T04:06:57.429Z,73.93
2023-12-31T04:09:23.992Z,74.39
2023-12-31T04:11:50.598Z,73.86
2023-12-31T04:14:17.193Z,73.94
2023-12-31T04:16:44.015Z,73.82
2023-12-31T04:19:10.973Z,73.57
2023-12-31T04:21:37.487Z,73.35
2023-12-31T04:24:04.307Z,73.43
2023-12-31T04:26:30.835Z,73.47
2023-12-31T04:28:57.494Z,73.65
2023-12-31T04:31:24.035Z,73.53
2023-12-31T04:33:50.683Z,73.32
2023-12-31T04:36:17.492Z,73.68
2023-12-31T04:38:44.320Z,73.86
2023-12-31T04:41:20.600Z,73.65
2023-12-31T04:43:47.222Z,73.56
2023-12-31T04:46:13.818Z,73.46
2023-12-31T04:48:42.310Z,73.69
2023-12-31T04:51:08.843Z,73.64
2023-12-31T04:53:35.369Z,73.63
2023-12-31T04:56:01.879Z,73.68
2023-12-31T04:58:28.581Z,74.06
2023-12-31T05:00:55.082Z,74.00
2023-12-31T05:03:21.623Z,74.28
2023-12-31T05:05:48.204Z,74.86
2023-12-31T05:08:14.758Z,74.72
2023-12-31T05:10:41.820Z,74.86
2023-12-31T05:13:08.370Z,75.16
2023-12-31T05:15:36.211Z,74.81
2023-12-31T05:18:04.034Z,74.75
2023-12-31T05:20:30.608Z,74.50
2023-12-31T05:22:57.151Z,74.46
2023-12-31T05:25:23.713Z,74.05
2023-12-31T05:27:50.293Z,74.05
2023-12-31T05:30:16.942Z,73.80
2023-12-31T05:32:43.536Z,73.00
2023-12-31T05:35:10.338Z,73.40
2023-12-31T05:37:36.932Z,73.12
2023-12-31T05:40:05.264Z,72.90
2023-12-31T05:42:32.788Z,72.32
2023-12-31T05:44:59.426Z,72.08
2023-12-31T05:47:45.031Z,71.52
2023-12-31T05:50:12.609Z,71.75
2023-12-31T05:52:39.234Z,72.80
2023-12-31T05:55:06.315Z,75.94
2023-12-31T05:57:33.024Z,74.59
2023-12-31T06:00:00.762Z,72.10
2023-12-31T06:02:27.320Z,67.79
2023-12-31T06:04:53.842Z,70.30
2023-12-31T06:07:20.402Z,67.99
2023-12-31T06:09:46.939Z,67.62
2023-12-31T06:12:13.559Z,68.62
2023-12-31T06:14:40.079Z,66.72
2023-12-31T06:17:06.554Z,67.15
2023-12-31T06:19:35.071Z,65.81
2023-12-31T06:22:02.729Z,65.90
2023-12-31T06:24:29.233Z,65.26
2023-12-31T06:26:55.782Z,64.06
2023-12-31T06:29:22.317Z,64.58
2023-12-31T06:31:48.915Z,64.52
2023-12-31T06:34:15.570Z,65.10
2023-12-31T06:36:42.118Z,65.10
2023-12-31T06:39:09.557Z,65.44
2023-12-31T06:41:36.083Z,65.65
2023-12-31T06:44:02.607Z,65.22
2023-12-31T06:46:29.107Z,65.21
2023-12-31T06:48:57.448Z,65.86
2023-12-31T06:51:23.986Z,65.10
2023-12-31T06:53:51.098Z,65.00
2023-12-31T06:56:19.224Z,64.92
2023-12-31T06:58:45.749Z,64.69
2023-12-31T07:01:12.343Z,64.79
2023-12-31T07:03:39.148Z,65.16
2023-12-31T07:06:08.812Z,64.42
2023-12-31T07:08:35.818Z,64.38
2023-12-31T07:11:02.368Z,64.41
2023-12-31T07:13:28.931Z,64.36
2023-12-31T07:15:59.147Z,64.11
2023-12-31T07:18:26.694Z,64.35
2023-12-31T07:20:57.054Z,64.00
2023-12-31T07:23:23.669Z,64.30
2023-12-31T07:25:50.232Z,64.13
2023-12-31T07:28:16.840Z,64.06
2023-12-31T07:30:45.500Z,63.73
2023-12-31T07:33:12.281Z,63.32
2023-12-31T07:35:38.853Z,63.10
2023-12-31T07:38:07.975Z,62.90
2023-12-31T07:40:34.555Z,63.10
2023-12-31T07:43:01.387Z,63.38
2023-12-31T07:45:28.122Z,62.67
2023-12-31T07:47:54.818Z,63.02
2023-12-31T07:50:21.947Z,63.31
2023-12-31T07:52:48.465Z,64.30
2023-12-31T07:55:15.174Z,64.92
2023-12-31T07:57:41.760Z,64.71
2023-12-31T08:00:09.613Z,66.43
2023-12-31T08:02:36.532Z,66.93
2023-12-31T08:05:04.967Z,67.27
2023-12-31T08:07:31.637Z,67.61
2023-12-31T08:09:58.152Z,68.43
2023-12-31T08:12:26.013Z,69.55
2023-12-31T08:14:52.724Z,70.38
2023-12-31T08:17:19.292Z,70.37
2023-12-31T08:19:45.830Z,70.97
2023-12-31T08:22:12.391Z,71.07
2023-12-31T08:24:39.069Z,70.84
2023-12-31T08:27:05.619Z,71.62
2023-12-31T08:29:32.241Z,72.34
2023-12-31T08:31:58.778Z,72.40
2023-12-31T08:34:25.463Z,72.74
2023-12-31T08:36:52.143Z,72.94
2023-12-31T08:39:18.653Z,72.79
2023-12-31T08:41:45.189Z,72.82
2023-12-31T08:44:12.162Z,72.71
2023-12-31T08:46:38.806Z,73.76
2023-12-31T08:49:07.143Z,74.02
2023-12-31T08:51:33.938Z,74.41
2023-12-31T08:54:00.485Z,74.26
2023-12-31T08:56:27.002Z,74.42
2023-12-31T08:58:53.848Z,73.99
2023-12-31T09:01:20.623Z,74.27
2023-12-31T09:03:47.205Z,74.20
2023-12-31T09:06:13.740Z,74.35
2023-12-31T09:08:40.314Z,73.83
2023-12-31T09:11:07.270Z,74.19
2023-12-31T09:13:33.825Z,73.24
2023-12-31T09:16:00.322Z,73.33
2023-12-31T09:18:26.987Z,73.03
2023-12-31T09:20:53.527Z,72.19
2023-12-31T09:23:20.129Z,72.23
2023-12-31T09:25:46.949Z,72.06
2023-12-31T09:28:13.627Z,72.35
2023-12-31T09:30:40.250Z,72.22
2023-12-31T09:33:07.155Z,71.34
2023-12-31T09:35:34.085Z,71.39
2023-12-31T09:38:00.654Z,71.73
2023-12-31T09:40:27.321Z,70.75
2023-12-31T09:42:55.749Z,71.38
2023-12-31T09:45:25.042Z,70.48
2023-12-31T09:47:54.453Z,71.13
2023-12-31T09:50:23.201Z,71.83
2023-12-31T09:52:51.650Z,71.38
2023-12-31T09:55:19.865Z,72.15
2023-12-31T09:57:53.800Z,71.49
2023-12-31T10:00:20.888Z,71.72
2023-12-31T10:02:49.355Z,72.23
2023-12-31T10:05:17.775Z,71.72
2023-12-31T10:07:46.058Z,71.92
2023-12-31T10:10:15.631Z,72.43
2023-12-31T10:12:42.274Z,72.05
2023-12-31T10:15:10.028Z,72.50
2023-12-31T10:17:40.190Z,72.70
2023-12-31T10:20:09.079Z,72.68
2023-12-31T10:22:37.180Z,71.98
2023-12-31T10:25:15.371Z,72.53
2023-12-31T10:27:48.478Z,72.01
2023-12-31T10:30:15.834Z,71.67
2023-12-31T10:32:46.149Z,72.08
2023-12-31T10:35:12.799Z,70.87
2023-12-31T10:37:39.544Z,71.50
2023-12-31T10:40:21.307Z,71.20
2023-12-31T10:42:50.569Z,70.96
2023-12-31T10:45:19.603Z,70.58
2023-12-31T10:47:49.649Z,71.04
2023-12-31T10:50:21.146Z,70.83
2023-12-31T10:52:50.615Z,70.79
2023-12-31T10:55:17.629Z,70.41
2023-12-31T10:57:44.765Z,69.37
2023-12-31T11:00:14.620Z,69.52
2023-12-31T11:02:43.414Z,69.72
2023-12-31T11:05:10.712Z,68.69
2023-12-31T11:07:37.468Z,69.06
2023-12-31T11:10:05.203Z,68.63
2023-12-31T11:12:32.331Z,67.86
2023-12-31T11:15:05.614Z,67.83
2023-12-31T11:17:41.344Z,67.75
2023-12-31T11:20:18.885Z,68.28
2023-12-31T11:23:04.293Z,67.04
2023-12-31T11:25:32.583Z,67.39
2023-12-31T11:27:59.602Z,67.06
2023-12-31T11:30:53.139Z,67.31
2023-12-31T11:33:26.217Z,66.59
2023-12-31T11:35:53.652Z,66.55
2023-12-31T11:38:21.107Z,66.76
2023-12-31T11:40:50.055Z,65.87
2023-12-31T11:43:18.483Z,65.37
2023-12-31T11:45:48.404Z,66.62
2023-12-31T11:48:25.474Z,65.35
2023-12-31T11:50:58.053Z,65.63
2023-12-31T11:53:48.031Z,65.63
2023-12-31T11:56:15.104Z,65.10
2023-12-31T11:58:44.014Z,64.73
2023-12-31T12:01:10.880Z,64.67
2023-12-31T12:03:37.868Z,64.99
2023-12-31T12:06:04.650Z,64.02
2023-12-31T12:08:31.431Z,64.15
2023-12-31T12:10:58.065Z,64.16
2023-12-31T12:13:25.990Z,64.71
2023-12-31T12:15:52.492Z,64.98
2023-12-31T12:18:22.691Z,64.80
2023-12-31T12:20:49.706Z,63.94
2023-12-31T12:23:18.996Z,63.56
2023-12-31T12:25:46.078Z,64.28
2023-12-31T12:28:14.148Z,64.17
2023-12-31T12:30:42.355Z,64.29
2023-12-31T12:33:13.910Z,63.51
2023-12-31T12:35:43.295Z,64.69
2023-12-31T12:38:09.986Z,63.97
2023-12-31T12:40:36.631Z,64.04
2023-12-31T12:43:04.324Z,64.55
2023-12-31T12:45:33.619Z,63.77
2023-12-31T12:48:03.833Z,63.69
2023-12-31T12:50:31.837Z,63.22
2023-12-31T12:52:58.983Z,63.33
2023-12-31T12:55:25.979Z,63.42
2023-12-31T12:57:53.401Z,63.71
2023-12-31T13:00:20.103Z,63.25
2023-12-31T13:02:46.647Z,63.34
2023-12-31T13:05:13.280Z,63.45
2023-12-31T13:07:39.846Z,63.18
2023-12-31T13:10:06.995Z,63.54
2023-12-31T13:12:33.505Z,63.19
2023-12-31T13:14:59.975Z,62.80
2023-12-31T13:17:27.080Z,63.79
2023-12-31T13:19:55.788Z,63.46
2023-12-31T13:22:22.720Z,63.38
2023-12-31T13:24:49.298Z,63.44
2023-12-31T13:27:15.988Z,63.50
2023-12-31T13:29:43.151Z,63.60
2023-12-31T13:32:12.337Z,63.46
2023-12-31T13:34:39.125Z,62.78
2023-12-31T13:37:05.787Z,62.95
2023-12-31T13:39:32.986Z,63.01
2023-12-31T13:41:59.750Z,62.62
2023-12-31T13:44:26.309Z,63.17
2023-12-31T13:46:57.519Z,62.57
2023-12-31T13:49:25.033Z,62.15
2023-12-31T13:51:52.239Z,62.88
2023-12-31T13:54:19.919Z,62.40
2023-12-31T13:56:46.478Z,62.66
2023-12-31T13:59:13.921Z,62.79
2023-12-31T14:01:40.710Z,62.49
2023-12-31T14:04:08.296Z,61.82
2023-12-31T14:06:35.176Z,62.66
2023-12-31T14:09:04.150Z,63.29
2023-12-31T14:11:32.378Z,63.01
2023-12-31T14:13:59.056Z,62.65
2023-12-31T14:16:26.443Z,63.14
2023-12-31T14:18:53.186Z,62.53
2023-12-31T14:21:20.286Z,63.25
2023-12-31T14:23:46.809Z,63.52
2023-12-31T14:26:13.625Z,63.48
2023-12-31T14:28:40.319Z,63.02
2023-12-31T14:31:07.205Z,63.12
2023-12-31T14:33:33.917Z,63.50
2023-12-31T14:36:00.504Z,63.46
2023-12-31T14:38:26.968Z,64.19
2023-12-31T14:40:53.558Z,63.56
2023-12-31T14:43:20.229Z,63.91
2023-12-31T14:45:46.776Z,63.92
2023-12-31T14:48:13.371Z,63.40
2023-12-31T14:50:40.147Z,64.31
2023-12-31T14:53:07.121Z,63.70
2023-12-31T14:55:34.020Z,64.09
2023-12-31T14:58:00.860Z,64.50
2023-12-31T15:00:27.371Z,64.11
2023-12-31T15:02:54.047Z,63.84
2023-12-31T15:05:20.694Z,64.25
2023-12-31T15:07:47.520Z,64.01
2023-12-31T15:10:14.309Z,64.73
2023-12-31T15:12:41.073Z,64.50
2023-12-31T15:15:08.635Z,64.44
2023-12-31T15:17:35.200Z,65.30
2023-12-31T15:20:02.295Z,65.54
2023-12-31T15:22:30.012Z,66.34
2023-12-31T15:24:57.159Z,66.67
2023-12-31T15:27:24.183Z,67.17
2023-12-31T15:29:50.728Z,67.15
2023-12-31T15:32:18.315Z,68.25
2023-12-31T15:34:44.879Z,68.46
2023-12-31T15:37:11.543Z,68.66
2023-12-31T15:39:38.054Z,69.04
2023-12-31T15:42:05.683Z,68.68
2023-12-31T15:44:32.195Z,68.74
2023-12-31T15:46:59.352Z,67.55
2023-12-31T15:49:27.247Z,67.13
2023-12-31T15:51:53.963Z,67.09
2023-12-31T15:54:20.537Z,67.91
2023-12-31T15:56:47.109Z,68.70
2023-12-31T15:59:13.620Z,70.01
2023-12-31T16:01:40.225Z,69.56
2023-12-31T16:04:06.776Z,69.27
2023-12-31T16:06:33.303Z,69.16
2023-12-31T16:08:59.876Z,69.02
2023-12-31T16:11:26.442Z,67.41
2023-12-31T16:13:53.098Z,65.51
2023-12-31T16:16:19.609Z,64.62
2023-12-31T16:18:46.702Z,64.88
2023-12-31T16:21:13.637Z,64.70
2023-12-31T16:23:40.200Z,64.42
2023-12-31T16:26:06.867Z,64.76
2023-12-31T16:28:33.455Z,64.77
2023-12-31T16:31:00.064Z,64.57
2023-12-31T16:33:26.797Z,65.35
2023-12-31T16:35:53.467Z,65.49
2023-12-31T16:38:20.534Z,66.05
2023-12-31T16:40:47.131Z,66.73
2023-12-31T16:43:13.680Z,67.41
2023-12-31T16:45:40.247Z,67.23
2023-12-31T16:48:07.596Z,67.87
2023-12-31T16:50:35.414Z,67.96
2023-12-31T16:53:02.152Z,68.86
2023-12-31T16:55:28.812Z,68.78
2023-12-31T16:57:55.387Z,69.15
2023-12-31T17:00:22.207Z,70.20
2023-12-31T17:02:48.986Z,70.73
2023-12-31T17:05:16.322Z,71.44
2023-12-31T17:07:43.214Z,71.82
2023-12-31T17:10:13.298Z,72.25
2023-12-31T17:12:41.019Z,72.25
2023-12-31T17:15:10.949Z,72.11
2023-12-31T17:17:37.839Z,72.47
2023-12-31T17:20:05.569Z,72.64
2023-12-31T17:22:36.494Z,72.47
2023-12-31T17:25:03.681Z,72.44
2023-12-31T17:27:33.278Z,72.24
2023-12-31T17:30:00.889Z,72.06
2023-12-31T17:32:27.762Z,71.51
2023-12-31T17:34:54.440Z,71.10
2023-12-31T17:37:21.023Z,70.42
2023-12-31T17:39:47.616Z,69.76
2023-12-31T17:42:14.485Z,70.10
2023-12-31T17:44:41.057Z,69.01
2023-12-31T17:47:07.921Z,69.24
2023-12-31T17:49:34.454Z,68.91
2023-12-31T17:52:01.049Z,68.91
2023-12-31T17:54:27.632Z,68.36
2023-12-31T17:56:54.117Z,68.22
2023-12-31T17:59:20.615Z,68.18
2023-12-31T18:01:47.133Z,68.30
2023-12-31T18:04:13.628Z,68.50
2023-12-31T18:06:41.641Z,68.59
2023-12-31T18:09:09.422Z,68.04
2023-12-31T18:11:36.078Z,68.29
2023-12-31T18:14:02.897Z,68.56
2023-12-31T18:16:29.545Z,68.41
2023-12-31T18:18:56.215Z,68.61
2023-12-31T18:21:22.726Z,68.53
2023-12-31T18:23:49.222Z,68.74
2023-12-31T18:26:15.762Z,68.68
2023-12-31T18:28:42.280Z,68.74
2023-12-31T18:31:11.278Z,69.25
2023-12-31T18:33:37.852Z,69.10
2023-12-31T18:36:05.075Z,69.06
2023-12-31T18:38:31.634Z,69.38
2023-12-31T18:40:59.446Z,69.18
2023-12-31T18:43:26.198Z,69.70
2023-12-31T18:45:52.699Z,69.77
2023-12-31T18:48:19.382Z,69.82
2023-12-31T18:50:45.985Z,69.63
2023-12-31T18:53:12.600Z,69.65
2023-12-31T18:55:39.114Z,69.93
2023-12-31T18:58:06.071Z,70.21
2023-12-31T19:00:32.943Z,69.96
2023-12-31T19:03:00.303Z,69.53
2023-12-31T19:05:26.999Z,69.71
2023-12-31T19:07:53.676Z,69.77
2023-12-31T19:10:20.493Z,69.25
2023-12-31T19:12:48.288Z,69.02
2023-12-31T19:15:15.204Z,68.76
2023-12-31T19:17:42.188Z,68.61
2023-12-31T19:20:11.864Z,68.44
2023-12-31T19:22:38.577Z,68.06
2023-12-31T19:25:05.690Z,68.04
2023-12-31T19:27:32.202Z,68.18
2023-12-31T19:29:58.700Z,68.11
2023-12-31T19:32:25.265Z,68.38
2023-12-31T19:34:51.807Z,68.08
2023-12-31T19:37:20.101Z,68.25
2023-12-31T19:39:46.663Z,68.56
2023-12-31T19:42:13.770Z,68.76
2023-12-31T19:44:44.705Z,69.73
2023-12-31T19:47:11.426Z,69.56
2023-12-31T19:49:51.554Z,69.77
2023-12-31T19:52:26.534Z,69.94
2023-12-31T19:54:53.355Z,69.32
2023-12-31T19:57:19.882Z,69.85
2023-12-31T19:59:47.638Z,69.70
2023-12-31T20:02:14.685Z,69.70
2023-12-31T20:04:41.329Z,69.64
2023-12-31T20:07:07.912Z,69.46
2023-12-31T20:09:34.621Z,68.92
2023-12-31T20:12:01.172Z,68.44
2023-12-31T20:14:27.672Z,68.71
2023-12-31T20:16:54.232Z,68.61
2023-12-31T20:19:20.814Z,68.29
2023-12-31T20:21:47.401Z,67.75
2023-12-31T20:24:16.332Z,67.64
2023-12-31T20:26:43.960Z,67.43
2023-12-31T20:29:12.718Z,67.71
2023-12-31T20:31:41.121Z,67.60
2023-12-31T20:34:07.609Z,67.49
2023-12-31T20:36:34.173Z,67.53
2023-12-31T20:39:00.802Z,67.61
2023-12-31T20:41:27.321Z,67.56
2023-12-31T20:43:55.153Z,67.70
2023-12-31T20:46:21.925Z,67.25
2023-12-31T20:48:48.654Z,67.67
2023-12-31T20:51:15.685Z,67.44
2023-12-31T20:53:42.668Z,67.64
2023-12-31T20:56:11.017Z,67.18
2023-12-31T20:58:38.051Z,67.25
2023-12-31T21:01:05.398Z,66.80
2023-12-31T21:03:32.045Z,67.06
2023-12-31T21:05:58.650Z,66.72
2023-12-31T21:08:25.373Z,66.70
2023-12-31T21:10:52.104Z,66.25
2023-12-31T21:13:18.761Z,66.35
2023-12-31T21:15:45.297Z,66.29
2023-12-31T21:18:13.085Z,66.05
2023-12-31T21:20:41.936Z,65.66
2023-12-31T21:23:08.538Z,65.57
2023-12-31T21:25:39.414Z,65.86
2023-12-31T21:28:08.364Z,65.43
2023-12-31T21:30:35.651Z,65.72
2023-12-31T21:33:03.862Z,65.56
2023-12-31T21:35:30.515Z,65.80
2023-12-31T21:37:58.041Z,65.40
2023-12-31T21:40:24.820Z,65.28
2023-12-31T21:42:51.399Z,65.57
2023-12-31T21:45:18.075Z,65.40
2023-12-31T21:47:44.684Z,65.44
2023-12-31T21:50:11.449Z,65.32
2023-12-31T21:52:38.146Z,65.51
2023-12-31T21:55:13.558Z,65.13
2023-12-31T21:57:46.069Z,65.02
2023-12-31T22:00:13.498Z,65.49
2023-12-31T22:02:40.031Z,65.01
2023-12-31T22:05:07.256Z,64.80
2023-12-31T22:07:34.312Z,64.88
2023-12-31T22:10:00.841Z,65.31
2023-12-31T22:12:27.395Z,64.86
2023-12-31T22:14:54.193Z,64.98
2023-12-31T22:17:21.093Z,65.10
2023-12-31T22:19:49.438Z,64.94
2023-12-31T22:22:16.769Z,64.71
2023-12-31T22:24:43.278Z,65.35
2023-12-31T22:27:09.931Z,64.78
2023-12-31T22:29:36.467Z,64.90
2023-12-31T22:32:03.657Z,64.91
2023-12-31T22:34:34.464Z,64.78
2023-12-31T22:37:00.970Z,64.84
2023-12-31T22:39:27.480Z,64.86
2023-12-31T22:41:54.041Z,64.92
2023-12-31T22:44:20.994Z,64.35
2023-12-31T22:46:47.532Z,64.78
2023-12-31T22:49:14.050Z,64.77
2023-12-31T22:51:40.916Z,64.78
2023-12-31T22:54:07.486Z,64.84
2023-12-31T22:56:33.997Z,64.46
2023-12-31T22:59:00.654Z,64.54
2023-12-31T23:01:30.494Z,64.75
2023-12-31T23:03:57.392Z,65.12
2023-12-31T23:06:24.052Z,64.39
2023-12-31T23:08:51.497Z,65.13
2023-12-31T23:11:18.088Z,65.10
2023-12-31T23:13:46.584Z,65.12
2023-12-31T23:16:13.379Z,65.08
2023-12-31T23:18:39.974Z,65.27
2023-12-31T23:21:10.484Z,64.79
2023-12-31T23:23:38.089Z,64.98
2023-12-31T23:26:05.013Z,64.96
2023-12-31T23:28:32.773Z,64.98
2023-12-31T23:30:59.428Z,65.13
2023-12-31T23:33:26.502Z,64.99
2023-12-31T23:35:53.177Z,65.40
2023-12-31T23:38:19.723Z,65.29
2023-12-31T23:40:48.410Z,65.61
2023-12-31T23:43:15.887Z,65.73
2023-12-31T23:45:42.586Z,65.68
2023-12-31T23:48:09.758Z,65.69
2023-12-31T23:50:36.662Z,65.30
2023-12-31T23:53:03.306Z,65.76
2023-12-31T23:55:29.914Z,65.85
2023-12-31T23:58:04.410Z,65.36
